createdAt,value
2023-02-06T00:01:31.772Z,-2.49
2023-02-06T00:04:01.049Z,-2.43
2023-02-06T00:06:28.961Z,-2.43
2023-02-06T00:08:56.987Z,-2.42
2023-02-06T00:11:25.468Z,-2.58
2023-02-06T00:13:53.468Z,-2.44
2023-02-06T00:16:23.495Z,-2.44
2023-02-06T00:18:51.841Z,-2.49
2023-02-06T00:21:22.111Z,-2.49
2023-02-06T00:23:50.651Z,-2.55
2023-02-06T00:26:19.093Z,-2.72
2023-02-06T00:28:47.786Z,-2.76
2023-02-06T00:31:16.690Z,-2.67
2023-02-06T00:33:44.700Z,-2.66
2023-02-06T00:36:12.909Z,-2.57
2023-02-06T00:38:42.332Z,-2.58
2023-02-06T00:41:10.315Z,-2.60
2023-02-06T00:43:38.491Z,-2.63
2023-02-06T00:46:06.892Z,-2.62
2023-02-06T00:48:34.879Z,-2.98
2023-02-06T00:51:02.716Z,-2.74
2023-02-06T00:53:31.027Z,-2.70
2023-02-06T00:56:00.364Z,-2.84
2023-02-06T00:58:28.238Z,-2.69
2023-02-06T01:00:56.267Z,-2.83
2023-02-06T01:03:24.176Z,-2.71
2023-02-06T01:05:52.010Z,-2.72
2023-02-06T01:08:20.010Z,-2.72
2023-02-06T01:10:47.976Z,-2.74
2023-02-06T01:13:17.224Z,-2.75
2023-02-06T01:15:45.452Z,-2.74
2023-02-06T01:18:13.566Z,-2.74
2023-02-06T01:20:42.230Z,-2.79
2023-02-06T01:23:10.697Z,-2.77
2023-02-06T01:25:38.800Z,-2.80
2023-02-06T01:28:06.683Z,-2.82
2023-02-06T01:30:36.069Z,-2.84
2023-02-06T01:33:03.971Z,-2.86
2023-02-06T01:35:31.827Z,-2.88
2023-02-06T01:37:59.823Z,-2.91
2023-02-06T01:40:27.997Z,-2.95
2023-02-06T01:42:55.857Z,-2.97
2023-02-06T01:45:39.381Z,-3.12
2023-02-06T01:48:11.386Z,-3.01
2023-02-06T01:50:42.963Z,-3.06
2023-02-06T01:53:11.267Z,-3.13
2023-02-06T01:55:42.729Z,-3.26
2023-02-06T01:58:15.568Z,-3.12
2023-02-06T02:00:45.217Z,-3.12
2023-02-06T02:03:13.478Z,-3.12
2023-02-06T02:05:44.594Z,-3.24
2023-02-06T02:08:18.614Z,-3.14
2023-02-06T02:10:47.106Z,-3.13
2023-02-06T02:13:15.220Z,-3.23
2023-02-06T02:15:57.456Z,-3.17
2023-02-06T02:18:43.713Z,-3.18
2023-02-06T02:22:05.433Z,-3.19
2023-02-06T02:24:49.935Z,-3.23
2023-02-06T02:27:51.844Z,-3.23
2023-02-06T02:30:52.600Z,-3.23
2023-02-06T02:33:48.203Z,-3.24
2023-02-06T02:36:23.569Z,-3.25
2023-02-06T02:39:00.252Z,-3.37
2023-02-06T02:41:33.793Z,-3.70
2023-02-06T02:44:08.880Z,-3.30
2023-02-06T02:46:39.958Z,-3.40
2023-02-06T02:49:12.759Z,-3.29
2023-02-06T02:51:43.099Z,-3.29
2023-02-06T02:54:11.753Z,-3.29
2023-02-06T02:56:40.093Z,-3.30
2023-02-06T02:59:12.615Z,-3.29
2023-02-06T03:01:45.374Z,-3.33
2023-02-06T03:04:17.909Z,-3.32
2023-02-06T03:07:05.526Z,-3.55
2023-02-06T03:09:47.037Z,-3.72
2023-02-06T03:12:23.256Z,-3.38
2023-02-06T03:14:55.193Z,-3.41
2023-02-06T03:17:32.705Z,-3.41
2023-02-06T03:20:03.075Z,-3.52
2023-02-06T03:22:34.244Z,-3.43
2023-02-06T03:25:05.847Z,-3.43
2023-02-06T03:27:35.026Z,-3.62
2023-02-06T03:30:05.716Z,-3.44
2023-02-06T03:32:36.042Z,-3.48
2023-02-06T03:35:08.198Z,-3.55
2023-02-06T03:37:39.263Z,-3.45
2023-02-06T03:40:09.649Z,-3.63
2023-02-06T03:42:42.240Z,-3.56
2023-02-06T03:45:17.013Z,-3.60
2023-02-06T03:47:47.187Z,-4.04
2023-02-06T03:50:16.145Z,-3.57
2023-02-06T03:52:49.811Z,-3.79
2023-02-06T03:55:21.249Z,-3.74
2023-02-06T03:57:54.006Z,-3.54
2023-02-06T04:00:22.898Z,-3.54
2023-02-06T04:02:52.544Z,-3.55
2023-02-06T04:05:20.972Z,-3.63
2023-02-06T04:07:50.515Z,-3.56
2023-02-06T04:10:18.627Z,-3.67
2023-02-06T04:12:46.549Z,-3.58
2023-02-06T04:15:14.390Z,-3.60
2023-02-06T04:17:57.521Z,-3.71
2023-02-06T04:20:27.772Z,-3.66
2023-02-06T04:22:57.542Z,-3.62
2023-02-06T04:25:25.607Z,-3.72
2023-02-06T04:27:53.636Z,-3.63
2023-02-06T04:30:21.778Z,-3.73
2023-02-06T04:32:49.592Z,-3.64
2023-02-06T04:35:17.680Z,-3.66
2023-02-06T04:37:45.644Z,-3.69
2023-02-06T04:40:15.099Z,-3.74
2023-02-06T04:42:43.218Z,-3.69
2023-02-06T04:45:11.239Z,-3.78
2023-02-06T04:47:39.145Z,-3.70
2023-02-06T04:50:08.317Z,-3.77
2023-02-06T04:52:36.376Z,-3.70
2023-02-06T04:55:04.246Z,-3.77
2023-02-06T04:57:33.583Z,-3.73
2023-02-06T05:00:01.645Z,-3.76
2023-02-06T05:02:29.513Z,-3.78
2023-02-06T05:04:57.490Z,-3.84
2023-02-06T05:07:25.631Z,-3.90
2023-02-06T05:09:53.489Z,-3.82
2023-02-06T05:12:21.489Z,-3.84
2023-02-06T05:14:50.794Z,-3.84
2023-02-06T05:17:18.618Z,-3.90
2023-02-06T05:19:46.982Z,-3.87
2023-02-06T05:22:14.956Z,-3.84
2023-02-06T05:24:42.779Z,-3.83
2023-02-06T05:27:10.793Z,-3.83
2023-02-06T05:29:38.791Z,-3.86
2023-02-06T05:32:08.083Z,-3.86
2023-02-06T05:34:36.091Z,-3.97
2023-02-06T05:37:04.070Z,-3.89
2023-02-06T05:39:31.929Z,-3.89
2023-02-06T05:41:59.974Z,-3.89
2023-02-06T05:44:27.971Z,-4.00
2023-02-06T05:46:55.860Z,-3.91
2023-02-06T05:49:25.212Z,-3.90
2023-02-06T05:51:53.265Z,-3.97
2023-02-06T05:54:21.086Z,-4.03
2023-02-06T05:56:49.107Z,-4.10
2023-02-06T05:59:17.091Z,-4.00
2023-02-06T06:01:44.890Z,-4.03
2023-02-06T06:04:13.286Z,-4.08
2023-02-06T06:06:42.880Z,-4.13
2023-02-06T06:09:10.714Z,-4.30
2023-02-06T06:11:38.739Z,-4.04
2023-02-06T06:14:06.653Z,-4.12
2023-02-06T06:16:34.603Z,-4.09
2023-02-06T06:19:03.110Z,-4.07
2023-02-06T06:21:31.239Z,-4.08
2023-02-06T06:24:00.683Z,-4.10
2023-02-06T06:26:28.854Z,-4.11
2023-02-06T06:28:57.496Z,-4.14
2023-02-06T06:31:25.439Z,-4.15
2023-02-06T06:33:54.403Z,-4.15
2023-02-06T06:36:22.313Z,-4.25
2023-02-06T06:38:50.272Z,-4.15
2023-02-06T06:41:19.800Z,-4.26
2023-02-06T06:43:47.910Z,-4.19
2023-02-06T06:46:16.672Z,-4.23
2023-02-06T06:48:44.660Z,-4.35
2023-02-06T06:51:12.484Z,-4.13
2023-02-06T06:53:40.825Z,-4.11
2023-02-06T06:56:11.432Z,-4.22
2023-02-06T06:58:40.867Z,-4.17
2023-02-06T07:01:09.678Z,-4.08
2023-02-06T07:03:37.849Z,-4.25
2023-02-06T07:06:06.338Z,-4.08
2023-02-06T07:08:34.457Z,-4.04
2023-02-06T07:11:02.447Z,-4.15
2023-02-06T07:13:30.294Z,-4.03
2023-02-06T07:15:59.494Z,-4.01
2023-02-06T07:18:27.488Z,-4.06
2023-02-06T07:20:55.337Z,-4.07
2023-02-06T07:23:23.225Z,-3.97
2023-02-06T07:25:51.273Z,-3.96
2023-02-06T07:28:19.263Z,-4.00
2023-02-06T07:30:48.156Z,-3.91
2023-02-06T07:33:17.608Z,-3.90
2023-02-06T07:35:45.458Z,-3.87
2023-02-06T07:38:13.288Z,-4.33
2023-02-06T07:40:45.547Z,-4.06
2023-02-06T07:43:14.386Z,-3.94
2023-02-06T07:45:42.452Z,-3.82
2023-02-06T07:48:10.394Z,-4.76
2023-02-06T07:50:39.792Z,-4.02
2023-02-06T07:53:07.996Z,-3.67
2023-02-06T07:55:37.892Z,-3.58
2023-02-06T07:58:06.032Z,-3.44
2023-02-06T08:00:34.109Z,-3.28
2023-02-06T08:03:01.900Z,-3.11
2023-02-06T08:05:29.853Z,-3.02
2023-02-06T08:07:59.322Z,-2.76
2023-02-06T08:10:27.583Z,-2.50
2023-02-06T08:12:55.500Z,-2.21
2023-02-06T08:15:23.591Z,-1.89
2023-02-06T08:17:51.412Z,-1.68
2023-02-06T08:20:19.384Z,-1.10
2023-02-06T08:22:47.735Z,-0.82
2023-02-06T08:25:17.224Z,-0.39
2023-02-06T08:27:45.085Z,-0.61
2023-02-06T08:30:14.523Z,0.31
2023-02-06T08:32:42.392Z,0.67
2023-02-06T08:35:10.279Z,0.88
2023-02-06T08:37:38.350Z,0.79
2023-02-06T08:40:07.017Z,1.14
2023-02-06T08:42:36.323Z,1.44
2023-02-06T08:45:04.422Z,1.83
2023-02-06T08:47:32.294Z,2.22
2023-02-06T08:50:02.888Z,2.61
2023-02-06T08:52:31.501Z,2.88
2023-02-06T08:54:59.337Z,3.27
2023-02-06T08:57:27.152Z,3.61
2023-02-06T08:59:56.985Z,3.58
2023-02-06T09:02:24.868Z,3.71
2023-02-06T09:04:52.716Z,3.90
2023-02-06T09:07:21.880Z,3.89
2023-02-06T09:09:49.732Z,4.03
2023-02-06T09:12:17.650Z,4.20
2023-02-06T09:14:45.957Z,4.20
2023-02-06T09:17:15.196Z,4.23
2023-02-06T09:19:43.195Z,4.37
2023-02-06T09:22:11.223Z,4.23
2023-02-06T09:24:39.179Z,4.66
2023-02-06T09:27:07.090Z,4.75
2023-02-06T09:29:35.320Z,4.84
2023-02-06T09:32:03.235Z,4.98
2023-02-06T09:34:32.476Z,4.98
2023-02-06T09:37:03.724Z,4.93
2023-02-06T09:39:32.252Z,4.98
2023-02-06T09:42:05.788Z,5.13
2023-02-06T09:44:37.293Z,5.29
2023-02-06T09:47:18.545Z,5.47
2023-02-06T09:49:51.182Z,5.62
2023-02-06T09:52:43.903Z,5.75
2023-02-06T09:55:19.333Z,6.01
2023-02-06T09:57:58.501Z,6.01
2023-02-06T10:00:38.774Z,6.25
2023-02-06T10:03:37.624Z,6.45
2023-02-06T10:06:19.141Z,6.34
2023-02-06T10:08:54.700Z,5.94
2023-02-06T10:11:33.678Z,5.45
2023-02-06T10:14:05.611Z,4.92
2023-02-06T10:16:39.676Z,4.66
2023-02-06T10:19:15.064Z,4.67
2023-02-06T10:21:49.506Z,4.70
2023-02-06T10:24:25.224Z,4.64
2023-02-06T10:26:54.613Z,4.73
2023-02-06T10:29:30.208Z,4.75
2023-02-06T10:32:14.224Z,4.60
2023-02-06T10:35:15.861Z,5.07
2023-02-06T10:38:14.982Z,4.93
2023-02-06T10:40:53.415Z,4.69
2023-02-06T10:43:32.122Z,4.34
2023-02-06T10:46:09.956Z,4.15
2023-02-06T10:48:44.582Z,4.38
2023-02-06T10:51:20.936Z,4.69
2023-02-06T10:53:52.904Z,4.38
2023-02-06T10:56:25.379Z,5.03
2023-02-06T10:58:57.114Z,4.86
2023-02-06T11:01:27.480Z,4.72
2023-02-06T11:03:59.941Z,4.79
2023-02-06T11:06:31.181Z,4.59
2023-02-06T11:09:00.602Z,4.56
2023-02-06T11:11:30.803Z,4.47
2023-02-06T11:14:02.754Z,4.41
2023-02-06T11:16:32.089Z,4.23
2023-02-06T11:19:09.924Z,4.10
2023-02-06T11:21:54.053Z,4.13
2023-02-06T11:24:25.179Z,3.85
2023-02-06T11:26:56.822Z,3.83
2023-02-06T11:29:28.075Z,3.73
2023-02-06T11:31:58.660Z,3.53
2023-02-06T11:34:32.465Z,2.79
2023-02-06T11:37:03.161Z,3.79
2023-02-06T11:39:34.533Z,3.89
2023-02-06T11:42:06.427Z,3.74
2023-02-06T11:44:39.748Z,3.84
2023-02-06T11:47:21.914Z,3.92
2023-02-06T11:49:49.975Z,3.76
2023-02-06T11:52:30.168Z,3.48
2023-02-06T11:55:02.314Z,3.20
2023-02-06T11:57:33.704Z,2.99
2023-02-06T12:00:06.160Z,3.05
2023-02-06T12:02:36.040Z,3.10
2023-02-06T12:05:11.858Z,3.14
2023-02-06T12:07:43.990Z,3.15
2023-02-06T12:10:17.521Z,2.95
2023-02-06T12:12:50.626Z,2.93
2023-02-06T12:15:46.686Z,2.77
2023-02-06T12:18:14.662Z,2.68
2023-02-06T12:20:51.334Z,2.85
2023-02-06T12:23:23.960Z,3.18
2023-02-06T12:25:57.709Z,3.36
2023-02-06T12:28:32.548Z,3.77
2023-02-06T12:31:05.039Z,4.00
2023-02-06T12:33:40.405Z,3.65
2023-02-06T12:36:16.798Z,3.11
2023-02-06T12:38:51.490Z,2.76
2023-02-06T12:41:41.977Z,2.85
2023-02-06T12:44:22.975Z,2.83
2023-02-06T12:46:56.150Z,2.94
2023-02-06T12:49:28.554Z,3.21
2023-02-06T12:52:04.871Z,3.35
2023-02-06T12:54:37.711Z,3.52
2023-02-06T12:57:13.737Z,3.85
2023-02-06T13:00:10.162Z,3.78
2023-02-06T13:03:05.369Z,3.70
2023-02-06T13:05:37.820Z,3.68
2023-02-06T13:08:08.925Z,3.69
2023-02-06T13:10:38.637Z,3.55
2023-02-06T13:13:08.195Z,3.44
2023-02-06T13:15:39.794Z,3.04
2023-02-06T13:18:50.760Z,3.03
2023-02-06T13:21:21.506Z,2.56
2023-02-06T13:24:12.643Z,2.71
2023-02-06T13:27:12.010Z,2.73
2023-02-06T13:29:42.846Z,2.68
2023-02-06T13:32:46.492Z,2.59
2023-02-06T13:35:23.136Z,2.40
2023-02-06T13:37:53.039Z,2.09
2023-02-06T13:40:30.619Z,2.02
2023-02-06T13:43:02.742Z,1.97
2023-02-06T13:45:35.325Z,1.67
2023-02-06T13:48:31.326Z,1.68
2023-02-06T13:51:18.638Z,1.56
2023-02-06T13:54:17.209Z,1.33
2023-02-06T13:57:01.089Z,1.23
2023-02-06T13:59:31.381Z,1.15
2023-02-06T14:02:05.347Z,1.08
2023-02-06T14:04:34.608Z,1.09
2023-02-06T14:07:23.942Z,1.05
2023-02-06T14:10:05.454Z,1.06
2023-02-06T14:12:49.828Z,1.05
2023-02-06T14:15:28.565Z,0.79
2023-02-06T14:18:09.000Z,0.76
2023-02-06T14:20:48.628Z,0.68
2023-02-06T14:23:38.500Z,0.74
2023-02-06T14:26:20.074Z,0.62
2023-02-06T14:28:59.046Z,0.57
2023-02-06T14:31:40.659Z,0.54
2023-02-06T14:34:24.456Z,0.52
2023-02-06T14:37:25.876Z,0.45
2023-02-06T14:39:55.783Z,0.41
2023-02-06T14:42:27.227Z,0.45
2023-02-06T14:44:58.998Z,0.43
2023-02-06T14:47:32.524Z,0.35
2023-02-06T14:50:02.800Z,0.36
2023-02-06T14:52:33.457Z,0.24
2023-02-06T14:55:01.459Z,0.34
2023-02-06T14:57:31.291Z,0.18
2023-02-06T15:00:01.572Z,0.19
2023-02-06T15:02:32.607Z,0.33
2023-02-06T15:05:02.582Z,0.29
2023-02-06T15:07:32.557Z,0.25
2023-02-06T15:10:05.810Z,0.22
2023-02-06T15:12:34.469Z,0.19
2023-02-06T15:15:05.457Z,0.12
2023-02-06T15:17:34.627Z,-0.33
2023-02-06T15:20:26.120Z,0.02
2023-02-06T15:22:58.132Z,-0.01
2023-02-06T15:25:41.366Z,-0.04
2023-02-06T15:28:18.939Z,-0.07
2023-02-06T15:30:47.551Z,-0.13
2023-02-06T15:33:25.149Z,-0.11
2023-02-06T15:35:56.326Z,-0.12
2023-02-06T15:38:26.385Z,-0.12
2023-02-06T15:40:57.141Z,-0.14
2023-02-06T15:43:27.543Z,-0.25
2023-02-06T15:45:57.973Z,-0.18
2023-02-06T15:48:29.210Z,-0.24
2023-02-06T15:51:01.221Z,-0.25
2023-02-06T15:53:35.859Z,-0.41
2023-02-06T15:56:09.939Z,-0.36
2023-02-06T15:58:38.143Z,-1.41
2023-02-06T16:01:14.346Z,-0.35
2023-02-06T16:03:43.386Z,-0.52
2023-02-06T16:06:16.815Z,-0.39
2023-02-06T16:08:51.442Z,-0.49
2023-02-06T16:11:37.117Z,-0.45
2023-02-06T16:14:07.327Z,-0.45
2023-02-06T16:16:35.356Z,-0.48
2023-02-06T16:19:03.304Z,-0.58
2023-02-06T16:21:35.477Z,-0.50
2023-02-06T16:24:16.460Z,-0.52
2023-02-06T16:26:48.138Z,-0.84
2023-02-06T16:29:26.919Z,-0.57
2023-02-06T16:32:01.440Z,-0.68
2023-02-06T16:34:37.205Z,-0.94
2023-02-06T16:37:13.024Z,-0.66
2023-02-06T16:39:42.471Z,-0.78
2023-02-06T16:42:15.047Z,-0.67
2023-02-06T16:44:45.621Z,-0.67
2023-02-06T16:47:16.064Z,-0.69
2023-02-06T16:49:44.408Z,-0.69
2023-02-06T16:52:19.243Z,-0.80
2023-02-06T16:54:48.021Z,-0.74
2023-02-06T16:57:22.808Z,-0.68
2023-02-06T16:59:51.624Z,-0.78
2023-02-06T17:02:19.561Z,-0.85
2023-02-06T17:04:47.559Z,-0.72
2023-02-06T17:07:19.475Z,-0.74
2023-02-06T17:09:49.006Z,-0.79
2023-02-06T17:12:19.606Z,-0.79
2023-02-06T17:14:48.800Z,-0.83
2023-02-06T17:17:18.826Z,-1.07
2023-02-06T17:19:48.055Z,-0.88
2023-02-06T17:22:17.628Z,-0.90
2023-02-06T17:24:46.411Z,-1.05
2023-02-06T17:27:16.640Z,-0.93
2023-02-06T17:29:47.446Z,-0.97
2023-02-06T17:32:18.250Z,-0.99
2023-02-06T17:34:46.055Z,-1.08
2023-02-06T17:37:20.953Z,-1.02
2023-02-06T17:39:51.982Z,-1.01
2023-02-06T17:42:22.034Z,-1.18
2023-02-06T17:44:50.569Z,-1.03
2023-02-06T17:47:18.460Z,-1.23
2023-02-06T17:49:47.215Z,-1.06
2023-02-06T17:52:15.461Z,-1.08
2023-02-06T17:54:43.411Z,-1.10
2023-02-06T17:57:13.417Z,-2.17
2023-02-06T17:59:41.353Z,-1.12
2023-02-06T18:02:12.712Z,-1.13
2023-02-06T18:04:40.658Z,-1.20
2023-02-06T18:07:08.941Z,-1.17
2023-02-06T18:09:36.853Z,-1.18
2023-02-06T18:12:05.024Z,-1.20
2023-02-06T18:14:35.675Z,-1.21
2023-02-06T18:17:04.110Z,-1.22
2023-02-06T18:19:32.419Z,-1.24
2023-02-06T18:22:00.519Z,-1.25
2023-02-06T18:24:28.440Z,-1.25
2023-02-06T18:26:56.427Z,-1.26
2023-02-06T18:29:24.415Z,-1.26
2023-02-06T18:31:53.666Z,-1.24
2023-02-06T18:34:21.867Z,-1.29
2023-02-06T18:36:50.022Z,-1.22
2023-02-06T18:39:18.100Z,-1.24
2023-02-06T18:42:03.408Z,-1.23
2023-02-06T18:44:31.699Z,-1.23
2023-02-06T18:47:00.891Z,-1.61
2023-02-06T18:49:28.847Z,-1.28
2023-02-06T18:51:56.757Z,-1.50
2023-02-06T18:54:24.696Z,-1.33
2023-02-06T18:56:52.732Z,-1.36
2023-02-06T18:59:20.996Z,-1.34
2023-02-06T19:01:49.235Z,-1.35
2023-02-06T19:04:18.540Z,-1.39
2023-02-06T19:06:47.064Z,-1.40
2023-02-06T19:09:15.596Z,-1.42
2023-02-06T19:11:44.210Z,-1.45
2023-02-06T19:14:15.423Z,-1.45
2023-02-06T19:16:44.737Z,-1.93
2023-02-06T19:19:13.307Z,-1.47
2023-02-06T19:21:44.314Z,-1.50
2023-02-06T19:24:13.928Z,-1.49
2023-02-06T19:26:42.816Z,-1.50
2023-02-06T19:29:12.619Z,-1.51
2023-02-06T19:31:40.681Z,-1.51
2023-02-06T19:34:10.809Z,-1.50
2023-02-06T19:36:38.694Z,-1.51
2023-02-06T19:39:12.874Z,-1.52
2023-02-06T19:41:43.673Z,-1.51
2023-02-06T19:44:14.973Z,-1.52
2023-02-06T19:46:42.791Z,-1.51
2023-02-06T19:49:12.318Z,-1.91
2023-02-06T19:51:42.372Z,-1.49
2023-02-06T19:54:11.567Z,-2.03
2023-02-06T19:56:41.816Z,-1.51
2023-02-06T19:59:18.263Z,-1.51
2023-02-06T20:01:46.927Z,-1.51
2023-02-06T20:04:15.453Z,-1.50
2023-02-06T20:06:44.608Z,-1.48
2023-02-06T20:09:15.769Z,-1.47
2023-02-06T20:11:43.746Z,-1.52
2023-02-06T20:14:13.389Z,-1.57
2023-02-06T20:16:42.838Z,-1.51
2023-02-06T20:19:13.609Z,-1.96
2023-02-06T20:21:44.532Z,-1.49
2023-02-06T20:24:18.438Z,-1.50
2023-02-06T20:26:46.718Z,-1.51
2023-02-06T20:29:21.643Z,-1.52
2023-02-06T20:31:50.488Z,-1.51
2023-02-06T20:34:19.164Z,-1.50
2023-02-06T20:36:47.707Z,-1.49
2023-02-06T20:39:17.609Z,-1.72
2023-02-06T20:41:46.453Z,-1.64
2023-02-06T20:44:15.124Z,-1.61
2023-02-06T20:46:43.989Z,-1.52
2023-02-06T20:49:15.739Z,-1.53
2023-02-06T20:51:43.853Z,-1.63
2023-02-06T20:54:13.561Z,-1.54
2023-02-06T20:56:43.172Z,-1.68
2023-02-06T20:59:14.016Z,-1.91
2023-02-06T21:01:42.228Z,-1.55
2023-02-06T21:04:12.439Z,-1.56
2023-02-06T21:06:41.464Z,-1.58
2023-02-06T21:09:10.839Z,-1.69
2023-02-06T21:11:40.930Z,-1.59
2023-02-06T21:14:14.698Z,-1.90
2023-02-06T21:16:43.741Z,-1.59
2023-02-06T21:19:13.651Z,-1.58
2023-02-06T21:21:44.896Z,-1.59
2023-02-06T21:24:14.032Z,-1.71
2023-02-06T21:26:42.097Z,-1.59
2023-02-06T21:29:12.318Z,-1.59
2023-02-06T21:31:40.359Z,-1.60
2023-02-06T21:34:11.230Z,-1.61
2023-02-06T21:36:40.164Z,-1.93
2023-02-06T21:39:08.950Z,-1.60
2023-02-06T21:41:37.752Z,-1.57
2023-02-06T21:44:06.229Z,-1.57
2023-02-06T21:46:35.673Z,-1.56
2023-02-06T21:49:03.726Z,-1.53
2023-02-06T21:51:31.716Z,-1.52
2023-02-06T21:53:59.884Z,-1.50
2023-02-06T21:56:29.150Z,-1.45
2023-02-06T21:58:58.097Z,-1.42
2023-02-06T22:01:27.948Z,-1.52
2023-02-06T22:04:00.964Z,-1.34
2023-02-06T22:06:29.271Z,-1.60
2023-02-06T22:09:05.234Z,-1.29
2023-02-06T22:11:33.571Z,-1.26
2023-02-06T22:14:03.347Z,-1.22
2023-02-06T22:16:31.364Z,-1.29
2023-02-06T22:19:01.780Z,-1.15
2023-02-06T22:21:31.461Z,-1.11
2023-02-06T22:24:02.254Z,-1.21
2023-02-06T22:26:31.198Z,-1.12
2023-02-06T22:28:59.682Z,-1.02
2023-02-06T22:31:30.057Z,-0.98
2023-02-06T22:34:00.426Z,-0.95
2023-02-06T22:36:30.348Z,-0.92
2023-02-06T22:39:00.663Z,-0.91
2023-02-06T22:41:29.315Z,-0.89
2023-02-06T22:43:57.353Z,-1.02
2023-02-06T22:46:27.339Z,-0.86
2023-02-06T22:48:55.861Z,-1.16
2023-02-06T22:51:25.556Z,-0.85
2023-02-06T22:53:54.232Z,-0.85
2023-02-06T22:56:31.533Z,-0.90
2023-02-06T22:59:01.775Z,-0.92
2023-02-06T23:01:33.313Z,-0.87
2023-02-06T23:04:03.651Z,-0.92
2023-02-06T23:06:34.212Z,-0.87
2023-02-06T23:09:03.589Z,-0.88
2023-02-06T23:11:32.345Z,-0.89
2023-02-06T23:14:01.930Z,-0.89
2023-02-06T23:16:31.910Z,-1.13
2023-02-06T23:19:01.889Z,-1.04
2023-02-06T23:21:29.778Z,-0.83
2023-02-06T23:24:00.765Z,-0.82
2023-02-06T23:26:29.692Z,-0.80
2023-02-06T23:28:58.780Z,-1.01
2023-02-06T23:31:27.979Z,-0.74
2023-02-06T23:33:56.533Z,-0.76
2023-02-06T23:36:26.787Z,-0.78
2023-02-06T23:38:55.577Z,-0.88
2023-02-06T23:41:26.805Z,-0.69
2023-02-06T23:43:57.260Z,-0.65
2023-02-06T23:46:26.037Z,-0.80
2023-02-06T23:48:54.428Z,-1.14
2023-02-06T23:51:22.714Z,-0.61
2023-02-06T23:53:51.292Z,-0.58
2023-02-06T23:56:21.267Z,-0.57
2023-02-06T23:58:51.312Z,-0.54
